Observations for DECIMOMANNU IT-AFB, Italy (LIED)

LIED 200555Z 10011KT 9999 FEW025 15/13 Q1020 RMK OVC OVC100 VIS MIN 9999 WIND THR35 /////KT WIND THR17 /////KT BLU  
LIED 200455Z 11012KT 9999 FEW008 15/14 Q1020 RMK OVC SCT100 BKN170 VIS MIN 9999 WIND THR35 /////KT WIND THR17 /////KT BLU   
LIED 200355Z 11012KT CAVOK 15/12 Q1020 RMK OVC SCT100 BKN170 VIS MIN 9999 WIND THR35 /////KT WIND THR17 /////KT BLU 
LIED 200255Z 11008KT CAVOK 14/11 Q1020 RMK BKN SCT100 BKN200 VIS MIN 9999 WIND THR35 /////KT WIND THR17 /////KT BLU 
LIED 200155Z 10009KT CAVOK 15/10 Q1020 RMK BKN SCT100 BKN200 VIS MIN 9999 WIND THR35 /////KT WIND THR17 /////KT BLU 
LIED 200055Z 11005KT CAVOK 14/12 Q1021 RMK BKN FEW100 BKN200 VIS MIN 9999 WIND THR35 /////KT WIND THR17 /////KT BLU 
LIED 192355Z 11006KT CAVOK 14/12 Q1021 RMK OVC SCT100 BKN200 VIS MIN 9999 WIND THR35 /////KT WIND THR17 /////KT BLU 
LIED 192255Z 10007KT CAVOK 15/11 Q1021 RMK OVC SCT100 BKN200 VIS MIN 9999 WIND THR35 /////KT WIND THR17 /////KT BLU 
LIED 192155Z 09007KT CAVOK 15/12 Q1022 RMK OVC SCT100 BKN200 VIS MIN 9999 WIND THR35 /////KT WIND THR17 /////KT BLU 
LIED 192055Z 10006KT CAVOK 14/12 Q1022 RMK OVC SCT100 BKN200 VIS MIN 9999 WIND THR35 /////KT WIND THR17 /////KT BLU 
LIED 191955Z 11007KT CAVOK 14/11 Q1022 RMK OVC SCT100 BKN170 VIS MIN 9999 WIND THR35 /////KT WIND THR17 /////KT BLU 
LIED 191855Z 12006KT CAVOK 15/11 Q1022 RMK BKN FEW100 BKN200 VIS MIN 9999 WIND THR35 /////KT WIND THR17 /////KT BLU 
LIED 191755Z 10007KT CAVOK 16/11 Q1022 RMK BKN FEW100 BKN200 VIS MIN 9999 WIND THR35 /////KT WIND THR17 /////KT BLU 
LIED 191655Z 11010KT CAVOK 18/12 Q1022 RMK BKN FEW100 BKN200 VIS MIN 9999 WIND THR35 /////KT WIND THR17 /////KT BLU 
LIED 191555Z 13009G19KT 9999 FEW030 19/13 Q1021 RMK BKN BKN200 VIS MIN 9999 WIND THR35 /////KT WIND THR17 /////KT BLU   
LIED 191455Z 14015KT 9999 FEW025 20/12 Q1021 RMK BKN BKN200 VIS MIN 9999 WIND THR35 /////KT WIND THR17 /////KT BLU  
LIED 191355Z 14016KT 9999 FEW030 21/13 Q1022 RMK BKN SCT200 VIS MIN 9999 WIND THR35 /////KT WIND THR17 /////KT BLU  
LIED 191255Z 13017G27KT 9999 FEW030 21/12 Q1022 RMK BKN SCT200 VIS MIN 9999 WIND THR35 /////KT WIND THR17 /////KT BLU   
LIED 191155Z 13018G28KT 9999 FEW030 21/12 Q1022 RMK BKN SCT200 VIS MIN 9999 WIND THR35 /////KT WIND THR17 /////KT BLU   
LIED 191055Z 13017KT 9999 FEW030 21/12 Q1021 RMK SCT SCT200 VIS MIN 9999 WIND THR35 /////KT WIND THR17 /////KT BLU  
LIED 190955Z 11016KT 9999 FEW030 20/13 Q1021 RMK BKN BKN200 VIS MIN 9999 WIND THR35 /////KT WIND THR17 /////KT BLU  
LIED 190855Z 12015KT 9999 FEW030 20/12 Q1021 RMK BKN SCT200 VIS MIN 9999 WIND THR35 /////KT WIND THR17 /////KT BLU  
LIED 190755Z 11015KT 9999 FEW030 18/14 Q1021 RMK SCT VIS MIN 9999 WIND THR35 /////KT WIND THR17 /////KT BLU 
LIED 190655Z 10011KT 9999 FEW030 17/14 Q1020 RMK SCT SCT200 VIS MIN 9999 WIND THR35 /////KT WIND THR17 /////KT BLU  
LIED 190555Z 10010KT 9999 FEW030 15/13 Q1020 RMK BKN BKN200 VIS MIN 9999 WIND THR35 /////KT WIND THR17 /////KT BLU